sensor_id;sensor_type;location;lat;lon;timestamp;temperature;humidity
52305;DHT22;38248;52.722;6.734;2022-10-26T00:02:13;9.30;99.90
52305;DHT22;38248;52.722;6.734;2022-10-26T00:04:38;9.30;99.90
52305;DHT22;38248;52.722;6.734;2022-10-26T00:07:04;9.20;99.90
52305;DHT22;38248;52.722;6.734;2022-10-26T00:09:29;9.20;99.90
52305;DHT22;38248;52.722;6.734;2022-10-26T00:11:55;9.20;99.90
52305;DHT22;38248;52.722;6.734;2022-10-26T00:14:21;9.20;99.90
52305;DHT22;38248;52.722;6.734;2022-10-26T00:16:46;9.20;99.90
52305;DHT22;38248;52.722;6.734;2022-10-26T00:19:12;9.20;99.90
52305;DHT22;38248;52.722;6.734;2022-10-26T00:21:38;9.20;99.90
52305;DHT22;38248;52.722;6.734;2022-10-26T00:24:03;9.20;99.90
52305;DHT22;38248;52.722;6.734;2022-10-26T00:26:29;9.10;99.90
52305;DHT22;38248;52.722;6.734;2022-10-26T00:28:55;9.10;99.90
52305;DHT22;38248;52.722;6.734;2022-10-26T00:31:22;9.20;99.90
52305;DHT22;38248;52.722;6.734;2022-10-26T00:33:51;9.10;99.90
52305;DHT22;38248;52.722;6.734;2022-10-26T00:36:18;9.10;99.90
52305;DHT22;38248;52.722;6.734;2022-10-26T00:38:54;9.10;99.90
52305;DHT22;38248;52.722;6.734;2022-10-26T00:41:29;9.00;99.90
52305;DHT22;38248;52.722;6.734;2022-10-26T00:43:55;9.00;99.90
52305;DHT22;38248;52.722;6.734;2022-10-26T00:46:32;9.00;99.90
52305;DHT22;38248;52.722;6.734;2022-10-26T00:49:02;9.10;99.90
52305;DHT22;38248;52.722;6.734;2022-10-26T00:51:32;8.90;99.90
52305;DHT22;38248;52.722;6.734;2022-10-26T00:54:03;9.00;99.90
52305;DHT22;38248;52.722;6.734;2022-10-26T00:56:33;8.90;99.90
52305;DHT22;38248;52.722;6.734;2022-10-26T00:59:02;8.80;99.90
52305;DHT22;38248;52.722;6.734;2022-10-26T01:01:33;8.80;99.90
52305;DHT22;38248;52.722;6.734;2022-10-26T01:04:04;8.80;99.90
52305;DHT22;38248;52.722;6.734;2022-10-26T01:06:31;8.70;99.90
52305;DHT22;38248;52.722;6.734;2022-10-26T01:08:58;8.80;99.90
52305;DHT22;38248;52.722;6.734;2022-10-26T01:11:24;8.70;99.90
52305;DHT22;38248;52.722;6.734;2022-10-26T01:13:51;8.70;99.90
52305;DHT22;38248;52.722;6.734;2022-10-26T01:16:34;8.70;99.90
52305;DHT22;38248;52.722;6.734;2022-10-26T01:19:52;8.70;99.90
52305;DHT22;38248;52.722;6.734;2022-10-26T01:22:28;8.70;99.90
52305;DHT22;38248;52.722;6.734;2022-10-26T01:28:01;8.70;99.90
52305;DHT22;38248;52.722;6.734;2022-10-26T01:30:43;8.70;99.90
52305;DHT22;38248;52.722;6.734;2022-10-26T01:33:32;8.70;99.90
52305;DHT22;38248;52.722;6.734;2022-10-26T01:36:12;8.70;99.90
52305;DHT22;38248;52.722;6.734;2022-10-26T01:41:31;8.60;99.90
52305;DHT22;38248;52.722;6.734;2022-10-26T01:44:09;8.60;99.90
52305;DHT22;38248;52.722;6.734;2022-10-26T01:46:41;8.50;99.90
52305;DHT22;38248;52.722;6.734;2022-10-26T01:49:12;8.50;99.90
52305;DHT22;38248;52.722;6.734;2022-10-26T01:51:41;8.40;99.90
52305;DHT22;38248;52.722;6.734;2022-10-26T01:54:07;8.30;99.90
52305;DHT22;38248;52.722;6.734;2022-10-26T01:56:37;8.30;99.90
52305;DHT22;38248;52.722;6.734;2022-10-26T01:59:21;8.30;99.90
52305;DHT22;38248;52.722;6.734;2022-10-26T02:02:28;8.20;99.90
52305;DHT22;38248;52.722;6.734;2022-10-26T02:08:01;8.30;99.90
52305;DHT22;38248;52.722;6.734;2022-10-26T02:13:37;8.20;99.90
52305;DHT22;38248;52.722;6.734;2022-10-26T02:19:07;8.20;99.90
52305;DHT22;38248;52.722;6.734;2022-10-26T02:21:38;8.20;99.90
52305;DHT22;38248;52.722;6.734;2022-10-26T02:24:08;8.20;99.90
52305;DHT22;38248;52.722;6.734;2022-10-26T02:26:35;8.30;99.90
52305;DHT22;38248;52.722;6.734;2022-10-26T02:29:05;8.30;99.90
52305;DHT22;38248;52.722;6.734;2022-10-26T02:31:33;8.30;99.90
52305;DHT22;38248;52.722;6.734;2022-10-26T02:34:02;8.30;99.90
52305;DHT22;38248;52.722;6.734;2022-10-26T02:36:32;8.30;99.90
52305;DHT22;38248;52.722;6.734;2022-10-26T02:39:00;8.40;99.90
52305;DHT22;38248;52.722;6.734;2022-10-26T02:41:28;8.40;99.90
52305;DHT22;38248;52.722;6.734;2022-10-26T02:44:10;8.50;99.90
52305;DHT22;38248;52.722;6.734;2022-10-26T02:46:38;8.50;99.90
52305;DHT22;38248;52.722;6.734;2022-10-26T02:49:04;8.50;99.90
52305;DHT22;38248;52.722;6.734;2022-10-26T02:51:33;8.60;99.90
52305;DHT22;38248;52.722;6.734;2022-10-26T02:56:51;8.60;99.90
52305;DHT22;38248;52.722;6.734;2022-10-26T02:59:20;8.50;99.90
52305;DHT22;38248;52.722;6.734;2022-10-26T03:01:47;8.50;99.90
52305;DHT22;38248;52.722;6.734;2022-10-26T03:04:15;8.60;99.90
52305;DHT22;38248;52.722;6.734;2022-10-26T03:06:40;8.50;99.90
52305;DHT22;38248;52.722;6.734;2022-10-26T03:09:06;8.50;99.90
52305;DHT22;38248;52.722;6.734;2022-10-26T03:11:31;8.60;99.90
52305;DHT22;38248;52.722;6.734;2022-10-26T03:13:57;8.70;99.90
52305;DHT22;38248;52.722;6.734;2022-10-26T03:16:23;8.60;99.90
52305;DHT22;38248;52.722;6.734;2022-10-26T03:18:48;8.60;99.90
52305;DHT22;38248;52.722;6.734;2022-10-26T03:21:14;8.60;99.90
52305;DHT22;38248;52.722;6.734;2022-10-26T03:23:39;8.70;99.90
52305;DHT22;38248;52.722;6.734;2022-10-26T03:26:06;8.70;99.90
52305;DHT22;38248;52.722;6.734;2022-10-26T03:28:32;8.70;99.90
52305;DHT22;38248;52.722;6.734;2022-10-26T03:30:57;8.70;99.90
52305;DHT22;38248;52.722;6.734;2022-10-26T03:33:23;8.70;99.90
52305;DHT22;38248;52.722;6.734;2022-10-26T03:35:54;8.80;99.90
52305;DHT22;38248;52.722;6.734;2022-10-26T03:38:20;8.70;99.90
52305;DHT22;38248;52.722;6.734;2022-10-26T03:40:45;8.80;99.90
52305;DHT22;38248;52.722;6.734;2022-10-26T03:43:12;8.70;99.90
52305;DHT22;38248;52.722;6.734;2022-10-26T03:45:38;8.80;99.90
52305;DHT22;38248;52.722;6.734;2022-10-26T03:48:04;8.80;99.90
52305;DHT22;38248;52.722;6.734;2022-10-26T03:50:30;8.80;99.90
52305;DHT22;38248;52.722;6.734;2022-10-26T03:52:55;8.80;99.90
52305;DHT22;38248;52.722;6.734;2022-10-26T03:55:21;8.80;99.90
52305;DHT22;38248;52.722;6.734;2022-10-26T03:57:47;8.70;99.90
52305;DHT22;38248;52.722;6.734;2022-10-26T04:00:14;8.70;99.90
52305;DHT22;38248;52.722;6.734;2022-10-26T04:02:45;8.70;99.90
52305;DHT22;38248;52.722;6.734;2022-10-26T04:05:20;8.80;99.90
52305;DHT22;38248;52.722;6.734;2022-10-26T04:07:57;8.70;99.90
52305;DHT22;38248;52.722;6.734;2022-10-26T04:10:25;8.70;99.90
52305;DHT22;38248;52.722;6.734;2022-10-26T04:12:51;8.80;99.90
52305;DHT22;38248;52.722;6.734;2022-10-26T04:15:18;8.60;99.90
52305;DHT22;38248;52.722;6.734;2022-10-26T04:17:44;8.70;99.90
52305;DHT22;38248;52.722;6.734;2022-10-26T04:20:10;8.70;99.90
52305;DHT22;38248;52.722;6.734;2022-10-26T04:22:36;8.70;99.90
52305;DHT22;38248;52.722;6.734;2022-10-26T04:25:05;8.70;99.90
52305;DHT22;38248;52.722;6.734;2022-10-26T04:27:31;8.70;99.90
52305;DHT22;38248;52.722;6.734;2022-10-26T04:29:57;8.80;99.90
52305;DHT22;38248;52.722;6.734;2022-10-26T04:32:23;8.80;99.90
52305;DHT22;38248;52.722;6.734;2022-10-26T04:34:48;8.80;99.90
52305;DHT22;38248;52.722;6.734;2022-10-26T04:37:14;8.80;99.90
52305;DHT22;38248;52.722;6.734;2022-10-26T04:39:40;8.80;99.90
52305;DHT22;38248;52.722;6.734;2022-10-26T04:42:05;8.90;99.90
52305;DHT22;38248;52.722;6.734;2022-10-26T04:44:32;8.90;99.90
52305;DHT22;38248;52.722;6.734;2022-10-26T04:46:58;9.00;99.90
52305;DHT22;38248;52.722;6.734;2022-10-26T04:49:23;9.00;99.90
52305;DHT22;38248;52.722;6.734;2022-10-26T04:51:49;9.10;99.90
52305;DHT22;38248;52.722;6.734;2022-10-26T04:54:14;9.10;99.90
52305;DHT22;38248;52.722;6.734;2022-10-26T04:56:40;9.10;99.90
52305;DHT22;38248;52.722;6.734;2022-10-26T04:59:06;9.00;99.90
52305;DHT22;38248;52.722;6.734;2022-10-26T05:01:32;9.10;99.90
52305;DHT22;38248;52.722;6.734;2022-10-26T05:03:57;9.20;99.90
52305;DHT22;38248;52.722;6.734;2022-10-26T05:06:23;9.20;99.90
52305;DHT22;38248;52.722;6.734;2022-10-26T05:08:49;9.20;99.90
52305;DHT22;38248;52.722;6.734;2022-10-26T05:11:14;9.20;99.90
52305;DHT22;38248;52.722;6.734;2022-10-26T05:13:40;9.30;99.90
52305;DHT22;38248;52.722;6.734;2022-10-26T05:16:06;9.30;99.90
52305;DHT22;38248;52.722;6.734;2022-10-26T05:18:32;9.30;99.90
52305;DHT22;38248;52.722;6.734;2022-10-26T05:20:57;9.20;99.90
52305;DHT22;38248;52.722;6.734;2022-10-26T05:23:23;9.30;99.90
52305;DHT22;38248;52.722;6.734;2022-10-26T05:25:49;9.40;99.90
52305;DHT22;38248;52.722;6.734;2022-10-26T05:28:15;9.40;99.90
52305;DHT22;38248;52.722;6.734;2022-10-26T05:30:44;9.40;99.90
52305;DHT22;38248;52.722;6.734;2022-10-26T05:33:11;9.40;99.90
52305;DHT22;38248;52.722;6.734;2022-10-26T05:35:37;9.40;99.90
52305;DHT22;38248;52.722;6.734;2022-10-26T05:38:11;9.50;99.90
52305;DHT22;38248;52.722;6.734;2022-10-26T05:40:51;9.50;99.90
52305;DHT22;38248;52.722;6.734;2022-10-26T05:43:18;9.50;99.90
52305;DHT22;38248;52.722;6.734;2022-10-26T05:45:44;9.60;99.90
52305;DHT22;38248;52.722;6.734;2022-10-26T05:48:10;9.60;99.90
52305;DHT22;38248;52.722;6.734;2022-10-26T05:50:36;9.50;99.90
52305;DHT22;38248;52.722;6.734;2022-10-26T05:53:11;9.60;99.90
52305;DHT22;38248;52.722;6.734;2022-10-26T05:55:37;9.60;99.90
52305;DHT22;38248;52.722;6.734;2022-10-26T05:58:03;9.60;99.90
52305;DHT22;38248;52.722;6.734;2022-10-26T06:00:33;9.60;99.90
52305;DHT22;38248;52.722;6.734;2022-10-26T06:03:24;9.70;99.90
52305;DHT22;38248;52.722;6.734;2022-10-26T06:05:57;9.70;99.90
52305;DHT22;38248;52.722;6.734;2022-10-26T06:08:25;9.70;99.90
52305;DHT22;38248;52.722;6.734;2022-10-26T06:10:52;9.70;99.90
52305;DHT22;38248;52.722;6.734;2022-10-26T06:13:19;9.70;99.90
52305;DHT22;38248;52.722;6.734;2022-10-26T06:26:58;9.70;99.90
52305;DHT22;38248;52.722;6.734;2022-10-26T06:32:21;9.70;99.90
52305;DHT22;38248;52.722;6.734;2022-10-26T06:34:56;9.70;99.90
52305;DHT22;38248;52.722;6.734;2022-10-26T06:37:24;9.70;99.90
52305;DHT22;38248;52.722;6.734;2022-10-26T06:39:50;9.70;99.90
52305;DHT22;38248;52.722;6.734;2022-10-26T06:42:17;9.70;99.90
52305;DHT22;38248;52.722;6.734;2022-10-26T06:44:42;9.70;99.90
52305;DHT22;38248;52.722;6.734;2022-10-26T06:47:15;9.70;99.90
52305;DHT22;38248;52.722;6.734;2022-10-26T06:50:10;9.70;99.90
52305;DHT22;38248;52.722;6.734;2022-10-26T06:55:42;9.70;99.90
52305;DHT22;38248;52.722;6.734;2022-10-26T06:58:15;9.70;99.90
52305;DHT22;38248;52.722;6.734;2022-10-26T07:00:43;9.80;99.90
52305;DHT22;38248;52.722;6.734;2022-10-26T07:03:09;9.70;99.90
52305;DHT22;38248;52.722;6.734;2022-10-26T07:05:34;9.70;99.90
52305;DHT22;38248;52.722;6.734;2022-10-26T07:08:00;9.70;99.90
52305;DHT22;38248;52.722;6.734;2022-10-26T07:10:26;9.70;99.90
52305;DHT22;38248;52.722;6.734;2022-10-26T07:12:51;9.70;99.90
52305;DHT22;38248;52.722;6.734;2022-10-26T07:15:17;9.80;99.90
52305;DHT22;38248;52.722;6.734;2022-10-26T07:17:47;9.80;99.90
52305;DHT22;38248;52.722;6.734;2022-10-26T07:20:15;9.80;99.90
52305;DHT22;38248;52.722;6.734;2022-10-26T07:22:41;9.90;99.90
52305;DHT22;38248;52.722;6.734;2022-10-26T07:25:10;9.90;99.90
52305;DHT22;38248;52.722;6.734;2022-10-26T07:27:37;10.10;99.90
52305;DHT22;38248;52.722;6.734;2022-10-26T07:30:06;10.20;99.90
52305;DHT22;38248;52.722;6.734;2022-10-26T07:32:31;10.20;99.90
52305;DHT22;38248;52.722;6.734;2022-10-26T07:35:00;10.40;99.90
52305;DHT22;38248;52.722;6.734;2022-10-26T07:37:26;10.40;99.90
52305;DHT22;38248;52.722;6.734;2022-10-26T07:39:52;10.50;99.90
52305;DHT22;38248;52.722;6.734;2022-10-26T07:42:18;10.60;99.90
52305;DHT22;38248;52.722;6.734;2022-10-26T07:44:44;10.50;99.90
52305;DHT22;38248;52.722;6.734;2022-10-26T07:47:09;10.70;99.90
52305;DHT22;38248;52.722;6.734;2022-10-26T07:49:35;10.70;99.90
52305;DHT22;38248;52.722;6.734;2022-10-26T07:52:00;10.70;99.90
52305;DHT22;38248;52.722;6.734;2022-10-26T07:54:26;10.70;99.90
52305;DHT22;38248;52.722;6.734;2022-10-26T07:56:52;10.80;99.90
52305;DHT22;38248;52.722;6.734;2022-10-26T07:59:17;10.80;99.90
52305;DHT22;38248;52.722;6.734;2022-10-26T08:01:43;10.90;99.90
52305;DHT22;38248;52.722;6.734;2022-10-26T08:04:09;11.00;99.90
52305;DHT22;38248;52.722;6.734;2022-10-26T08:06:38;11.10;99.90
52305;DHT22;38248;52.722;6.734;2022-10-26T08:09:04;11.10;99.90
52305;DHT22;38248;52.722;6.734;2022-10-26T08:11:29;11.20;99.90
52305;DHT22;38248;52.722;6.734;2022-10-26T08:13:55;11.30;99.90
52305;DHT22;38248;52.722;6.734;2022-10-26T08:16:21;11.30;99.90
52305;DHT22;38248;52.722;6.734;2022-10-26T08:18:48;11.40;99.90
52305;DHT22;38248;52.722;6.734;2022-10-26T08:21:14;11.40;99.90
52305;DHT22;38248;52.722;6.734;2022-10-26T08:23:40;11.60;99.90
52305;DHT22;38248;52.722;6.734;2022-10-26T08:26:07;11.90;99.90
52305;DHT22;38248;52.722;6.734;2022-10-26T08:28:33;12.10;99.90
52305;DHT22;38248;52.722;6.734;2022-10-26T08:31:02;12.40;99.90
52305;DHT22;38248;52.722;6.734;2022-10-26T08:33:28;12.70;99.90
52305;DHT22;38248;52.722;6.734;2022-10-26T08:35:55;12.80;99.90
52305;DHT22;38248;52.722;6.734;2022-10-26T08:38:21;13.10;99.90
52305;DHT22;38248;52.722;6.734;2022-10-26T08:40:46;13.30;99.90
52305;DHT22;38248;52.722;6.734;2022-10-26T08:43:29;13.30;99.90
52305;DHT22;38248;52.722;6.734;2022-10-26T08:46:12;13.20;99.90
52305;DHT22;38248;52.722;6.734;2022-10-26T08:48:43;13.20;99.90
52305;DHT22;38248;52.722;6.734;2022-10-26T08:51:24;13.20;99.90
52305;DHT22;38248;52.722;6.734;2022-10-26T08:54:17;13.30;99.90
52305;DHT22;38248;52.722;6.734;2022-10-26T08:56:54;13.40;99.90
52305;DHT22;38248;52.722;6.734;2022-10-26T08:59:35;13.60;99.90
52305;DHT22;38248;52.722;6.734;2022-10-26T09:02:01;13.80;99.90
52305;DHT22;38248;52.722;6.734;2022-10-26T09:04:29;13.90;99.90
52305;DHT22;38248;52.722;6.734;2022-10-26T09:07:03;14.00;99.90
52305;DHT22;38248;52.722;6.734;2022-10-26T09:12:30;14.20;99.90
52305;DHT22;38248;52.722;6.734;2022-10-26T09:23:13;14.60;99.90
52305;DHT22;38248;52.722;6.734;2022-10-26T09:25:41;14.70;99.90
52305;DHT22;38248;52.722;6.734;2022-10-26T09:28:15;14.80;99.90
52305;DHT22;38248;52.722;6.734;2022-10-26T09:30:45;14.80;99.90
52305;DHT22;38248;52.722;6.734;2022-10-26T09:33:15;15.00;99.90
52305;DHT22;38248;52.722;6.734;2022-10-26T09:36:01;15.10;99.90
52305;DHT22;38248;52.722;6.734;2022-10-26T09:38:28;15.10;99.90
52305;DHT22;38248;52.722;6.734;2022-10-26T09:41:15;15.20;99.90
52305;DHT22;38248;52.722;6.734;2022-10-26T09:43:48;15.20;99.90
52305;DHT22;38248;52.722;6.734;2022-10-26T09:46:19;15.30;99.90
52305;DHT22;38248;52.722;6.734;2022-10-26T09:48:51;15.40;99.90
52305;DHT22;38248;52.722;6.734;2022-10-26T09:51:18;15.60;99.90
52305;DHT22;38248;52.722;6.734;2022-10-26T09:53:47;15.60;99.90
52305;DHT22;38248;52.722;6.734;2022-10-26T09:56:15;15.80;99.90
52305;DHT22;38248;52.722;6.734;2022-10-26T09:59:00;16.00;99.90
52305;DHT22;38248;52.722;6.734;2022-10-26T10:01:33;16.20;99.90
52305;DHT22;38248;52.722;6.734;2022-10-26T10:06:42;16.70;99.90
52305;DHT22;38248;52.722;6.734;2022-10-26T10:09:13;16.90;99.90
52305;DHT22;38248;52.722;6.734;2022-10-26T10:11:43;17.00;99.90
52305;DHT22;38248;52.722;6.734;2022-10-26T10:14:15;17.00;99.90
52305;DHT22;38248;52.722;6.734;2022-10-26T10:16:51;17.10;99.90
52305;DHT22;38248;52.722;6.734;2022-10-26T10:19:29;17.10;99.90
52305;DHT22;38248;52.722;6.734;2022-10-26T10:21:58;17.00;99.90
52305;DHT22;38248;52.722;6.734;2022-10-26T10:24:28;17.00;99.90
52305;DHT22;38248;52.722;6.734;2022-10-26T10:29:45;17.00;99.90
52305;DHT22;38248;52.722;6.734;2022-10-26T10:32:22;17.00;99.90
52305;DHT22;38248;52.722;6.734;2022-10-26T10:34:51;17.10;99.90
52305;DHT22;38248;52.722;6.734;2022-10-26T10:37:37;17.10;99.90
52305;DHT22;38248;52.722;6.734;2022-10-26T10:40:17;17.10;99.90
52305;DHT22;38248;52.722;6.734;2022-10-26T10:42:52;17.10;99.90
52305;DHT22;38248;52.722;6.734;2022-10-26T10:45:22;17.00;99.90
52305;DHT22;38248;52.722;6.734;2022-10-26T10:48:04;17.00;99.90
52305;DHT22;38248;52.722;6.734;2022-10-26T10:50:36;17.00;99.90
52305;DHT22;38248;52.722;6.734;2022-10-26T10:53:13;17.00;99.90
52305;DHT22;38248;52.722;6.734;2022-10-26T10:55:47;17.10;99.90
52305;DHT22;38248;52.722;6.734;2022-10-26T10:58:25;17.10;99.90
52305;DHT22;38248;52.722;6.734;2022-10-26T11:00:55;17.10;99.90
52305;DHT22;38248;52.722;6.734;2022-10-26T11:06:22;17.10;99.90
52305;DHT22;38248;52.722;6.734;2022-10-26T11:09:02;17.20;99.90
52305;DHT22;38248;52.722;6.734;2022-10-26T11:11:41;17.30;99.90
52305;DHT22;38248;52.722;6.734;2022-10-26T11:14:19;17.40;99.90
52305;DHT22;38248;52.722;6.734;2022-10-26T11:16:52;17.50;99.90
52305;DHT22;38248;52.722;6.734;2022-10-26T11:19:25;17.60;99.90
52305;DHT22;38248;52.722;6.734;2022-10-26T11:21:56;17.60;99.90
52305;DHT22;38248;52.722;6.734;2022-10-26T11:24:30;17.70;99.90
52305;DHT22;38248;52.722;6.734;2022-10-26T11:27:25;17.70;99.90
52305;DHT22;38248;52.722;6.734;2022-10-26T11:30:14;17.60;99.90
52305;DHT22;38248;52.722;6.734;2022-10-26T11:32:55;17.70;99.90
52305;DHT22;38248;52.722;6.734;2022-10-26T11:35:41;17.70;99.90
52305;DHT22;38248;52.722;6.734;2022-10-26T11:38:48;17.70;99.90
52305;DHT22;38248;52.722;6.734;2022-10-26T11:41:21;17.70;99.90
52305;DHT22;38248;52.722;6.734;2022-10-26T11:44:03;17.80;99.90
52305;DHT22;38248;52.722;6.734;2022-10-26T11:46:35;17.80;99.90
52305;DHT22;38248;52.722;6.734;2022-10-26T11:52:24;17.70;99.90
52305;DHT22;38248;52.722;6.734;2022-10-26T11:54:57;17.70;99.90
52305;DHT22;38248;52.722;6.734;2022-10-26T11:57:27;17.80;99.90
52305;DHT22;38248;52.722;6.734;2022-10-26T11:59:58;17.80;99.90
52305;DHT22;38248;52.722;6.734;2022-10-26T12:02:29;17.90;99.90
52305;DHT22;38248;52.722;6.734;2022-10-26T12:07:35;18.00;99.90
52305;DHT22;38248;52.722;6.734;2022-10-26T12:10:26;18.10;99.90
52305;DHT22;38248;52.722;6.734;2022-10-26T12:15:46;18.10;99.90
52305;DHT22;38248;52.722;6.734;2022-10-26T12:20:59;18.10;99.90
52305;DHT22;38248;52.722;6.734;2022-10-26T12:23:32;18.10;99.90
52305;DHT22;38248;52.722;6.734;2022-10-26T12:29:34;18.10;99.90
52305;DHT22;38248;52.722;6.734;2022-10-26T12:39:33;18.30;99.90
52305;DHT22;38248;52.722;6.734;2022-10-26T12:44:36;18.40;99.90
52305;DHT22;38248;52.722;6.734;2022-10-26T12:47:07;18.40;99.90
52305;DHT22;38248;52.722;6.734;2022-10-26T12:52:33;18.40;99.90
52305;DHT22;38248;52.722;6.734;2022-10-26T12:57:45;18.30;99.90
52305;DHT22;38248;52.722;6.734;2022-10-26T13:00:32;18.40;99.90
52305;DHT22;38248;52.722;6.734;2022-10-26T13:08:44;18.60;99.90
52305;DHT22;38248;52.722;6.734;2022-10-26T13:11:30;18.60;99.90
52305;DHT22;38248;52.722;6.734;2022-10-26T13:14:02;18.70;99.90
52305;DHT22;38248;52.722;6.734;2022-10-26T13:16:29;18.80;99.90
52305;DHT22;38248;52.722;6.734;2022-10-26T13:19:02;18.80;99.90
52305;DHT22;38248;52.722;6.734;2022-10-26T13:21:30;18.80;99.90
52305;DHT22;38248;52.722;6.734;2022-10-26T13:23:57;18.70;99.90
52305;DHT22;38248;52.722;6.734;2022-10-26T13:32:41;18.60;99.90
52305;DHT22;38248;52.722;6.734;2022-10-26T13:35:13;18.60;99.90
52305;DHT22;38248;52.722;6.734;2022-10-26T13:37:45;18.60;99.90
52305;DHT22;38248;52.722;6.734;2022-10-26T13:40:15;18.60;99.90
52305;DHT22;38248;52.722;6.734;2022-10-26T13:42:49;18.60;99.90
52305;DHT22;38248;52.722;6.734;2022-10-26T13:45:26;18.70;99.90
52305;DHT22;38248;52.722;6.734;2022-10-26T13:48:01;18.70;99.90
52305;DHT22;38248;52.722;6.734;2022-10-26T13:50:37;18.70;99.90
52305;DHT22;38248;52.722;6.734;2022-10-26T13:53:22;18.80;99.90
52305;DHT22;38248;52.722;6.734;2022-10-26T13:59:09;18.80;99.90
52305;DHT22;38248;52.722;6.734;2022-10-26T14:01:34;18.70;99.90
52305;DHT22;38248;52.722;6.734;2022-10-26T14:04:14;18.60;99.90
52305;DHT22;38248;52.722;6.734;2022-10-26T14:06:40;18.50;99.90
52305;DHT22;38248;52.722;6.734;2022-10-26T14:09:15;18.50;99.90
52305;DHT22;38248;52.722;6.734;2022-10-26T14:11:56;18.60;99.90
52305;DHT22;38248;52.722;6.734;2022-10-26T14:14:29;18.80;99.90
52305;DHT22;38248;52.722;6.734;2022-10-26T14:16:56;18.70;99.90
52305;DHT22;38248;52.722;6.734;2022-10-26T14:19:31;18.80;99.90
52305;DHT22;38248;52.722;6.734;2022-10-26T14:21:58;18.80;99.90
52305;DHT22;38248;52.722;6.734;2022-10-26T14:24:35;18.90;99.90
52305;DHT22;38248;52.722;6.734;2022-10-26T14:27:19;18.90;99.90
52305;DHT22;38248;52.722;6.734;2022-10-26T14:29:45;18.90;99.90
52305;DHT22;38248;52.722;6.734;2022-10-26T14:34:46;19.20;99.90
52305;DHT22;38248;52.722;6.734;2022-10-26T14:37:21;19.50;99.90
52305;DHT22;38248;52.722;6.734;2022-10-26T14:39:48;19.70;99.90
52305;DHT22;38248;52.722;6.734;2022-10-26T14:42:36;19.70;99.90
52305;DHT22;38248;52.722;6.734;2022-10-26T14:45:04;19.50;99.90
52305;DHT22;38248;52.722;6.734;2022-10-26T14:47:32;19.30;99.90
52305;DHT22;38248;52.722;6.734;2022-10-26T14:49:59;19.20;99.90
52305;DHT22;38248;52.722;6.734;2022-10-26T14:52:30;19.00;99.90
52305;DHT22;38248;52.722;6.734;2022-10-26T14:55:03;18.70;99.90
52305;DHT22;38248;52.722;6.734;2022-10-26T14:57:37;18.60;99.90
52305;DHT22;38248;52.722;6.734;2022-10-26T15:00:24;18.40;99.90
52305;DHT22;38248;52.722;6.734;2022-10-26T15:02:52;18.20;99.90
52305;DHT22;38248;52.722;6.734;2022-10-26T15:05:27;18.10;99.90
52305;DHT22;38248;52.722;6.734;2022-10-26T15:07:54;17.90;99.90
52305;DHT22;38248;52.722;6.734;2022-10-26T15:13:31;17.70;99.90
52305;DHT22;38248;52.722;6.734;2022-10-26T15:16:25;17.60;99.90
52305;DHT22;38248;52.722;6.734;2022-10-26T15:18:58;17.50;99.90
52305;DHT22;38248;52.722;6.734;2022-10-26T15:21:34;17.40;99.90
52305;DHT22;38248;52.722;6.734;2022-10-26T15:26:56;17.30;99.90
52305;DHT22;38248;52.722;6.734;2022-10-26T15:29:40;17.20;99.90
52305;DHT22;38248;52.722;6.734;2022-10-26T15:32:33;17.20;99.90
52305;DHT22;38248;52.722;6.734;2022-10-26T15:35:12;17.10;99.90
52305;DHT22;38248;52.722;6.734;2022-10-26T15:37:38;17.00;99.90
52305;DHT22;38248;52.722;6.734;2022-10-26T15:40:05;17.00;99.90
52305;DHT22;38248;52.722;6.734;2022-10-26T15:42:30;16.90;99.90
52305;DHT22;38248;52.722;6.734;2022-10-26T15:44:58;16.80;99.90
52305;DHT22;38248;52.722;6.734;2022-10-26T15:47:28;16.70;99.90
52305;DHT22;38248;52.722;6.734;2022-10-26T15:49:56;16.70;99.90
52305;DHT22;38248;52.722;6.734;2022-10-26T15:52:21;16.60;99.90
52305;DHT22;38248;52.722;6.734;2022-10-26T15:54:47;16.40;99.90
52305;DHT22;38248;52.722;6.734;2022-10-26T15:57:13;16.40;99.90
52305;DHT22;38248;52.722;6.734;2022-10-26T15:59:39;16.30;99.90
52305;DHT22;38248;52.722;6.734;2022-10-26T16:02:14;16.20;99.90
52305;DHT22;38248;52.722;6.734;2022-10-26T16:04:40;16.10;99.90
52305;DHT22;38248;52.722;6.734;2022-10-26T16:07:13;16.10;99.90
52305;DHT22;38248;52.722;6.734;2022-10-26T16:09:40;16.20;99.90
52305;DHT22;38248;52.722;6.734;2022-10-26T16:12:09;16.10;99.90
52305;DHT22;38248;52.722;6.734;2022-10-26T16:14:36;16.10;99.90
52305;DHT22;38248;52.722;6.734;2022-10-26T16:17:01;16.10;99.90
52305;DHT22;38248;52.722;6.734;2022-10-26T16:19:27;16.00;99.90
52305;DHT22;38248;52.722;6.734;2022-10-26T16:21:52;16.00;99.90
52305;DHT22;38248;52.722;6.734;2022-10-26T16:24:18;15.90;99.90
52305;DHT22;38248;52.722;6.734;2022-10-26T16:26:44;15.80;99.90
52305;DHT22;38248;52.722;6.734;2022-10-26T16:29:09;15.80;99.90
52305;DHT22;38248;52.722;6.734;2022-10-26T16:31:35;15.70;99.90
52305;DHT22;38248;52.722;6.734;2022-10-26T16:34:01;15.70;99.90
52305;DHT22;38248;52.722;6.734;2022-10-26T16:36:26;15.60;99.90
52305;DHT22;38248;52.722;6.734;2022-10-26T16:38:52;15.50;99.90
52305;DHT22;38248;52.722;6.734;2022-10-26T16:41:18;15.50;99.90
52305;DHT22;38248;52.722;6.734;2022-10-26T16:43:46;15.40;99.90
52305;DHT22;38248;52.722;6.734;2022-10-26T16:46:14;15.50;99.90
52305;DHT22;38248;52.722;6.734;2022-10-26T16:48:42;15.40;99.90
52305;DHT22;38248;52.722;6.734;2022-10-26T16:51:09;15.50;99.90
52305;DHT22;38248;52.722;6.734;2022-10-26T16:53:35;15.50;99.90
52305;DHT22;38248;52.722;6.734;2022-10-26T16:56:03;15.60;99.90
52305;DHT22;38248;52.722;6.734;2022-10-26T16:58:29;15.60;99.90
52305;DHT22;38248;52.722;6.734;2022-10-26T17:00:55;15.60;99.90
52305;DHT22;38248;52.722;6.734;2022-10-26T17:03:20;15.60;99.90
52305;DHT22;38248;52.722;6.734;2022-10-26T17:05:46;15.60;99.90
52305;DHT22;38248;52.722;6.734;2022-10-26T17:08:11;15.60;99.90
52305;DHT22;38248;52.722;6.734;2022-10-26T17:10:37;15.60;99.90
52305;DHT22;38248;52.722;6.734;2022-10-26T17:13:02;15.60;99.90
52305;DHT22;38248;52.722;6.734;2022-10-26T17:15:28;15.60;99.90
52305;DHT22;38248;52.722;6.734;2022-10-26T17:17:54;15.60;99.90
52305;DHT22;38248;52.722;6.734;2022-10-26T17:20:19;15.60;99.90
52305;DHT22;38248;52.722;6.734;2022-10-26T17:22:45;15.60;99.90
52305;DHT22;38248;52.722;6.734;2022-10-26T17:25:10;15.60;99.90
52305;DHT22;38248;52.722;6.734;2022-10-26T17:27:36;15.60;99.90
52305;DHT22;38248;52.722;6.734;2022-10-26T17:30:02;15.50;99.90
52305;DHT22;38248;52.722;6.734;2022-10-26T17:32:27;15.50;99.90
52305;DHT22;38248;52.722;6.734;2022-10-26T17:34:54;15.50;99.90
52305;DHT22;38248;52.722;6.734;2022-10-26T17:37:20;15.50;99.90
52305;DHT22;38248;52.722;6.734;2022-10-26T17:39:45;15.40;99.90
52305;DHT22;38248;52.722;6.734;2022-10-26T17:42:11;15.40;99.90
52305;DHT22;38248;52.722;6.734;2022-10-26T17:44:36;15.30;99.90
52305;DHT22;38248;52.722;6.734;2022-10-26T17:47:03;15.30;99.90